sensor_id;sensor_type;location;lat;lon;timestamp;pressure;altitude;pressure_sealevel;temperature
12854;BMP180;6495;51.808;7.478;2023-12-22T00:00:07;99315.00;;;6.30
12854;BMP180;6495;51.808;7.478;2023-12-22T00:02:36;99309.00;;;6.30
12854;BMP180;6495;51.808;7.478;2023-12-22T00:05:05;99313.00;;;6.30
12854;BMP180;6495;51.808;7.478;2023-12-22T00:07:34;99312.00;;;6.30
12854;BMP180;6495;51.808;7.478;2023-12-22T00:10:03;99321.00;;;6.20
12854;BMP180;6495;51.808;7.478;2023-12-22T00:12:33;99329.00;;;6.20
12854;BMP180;6495;51.808;7.478;2023-12-22T00:15:01;99324.00;;;6.20
12854;BMP180;6495;51.808;7.478;2023-12-22T00:17:34;99328.00;;;6.20
12854;BMP180;6495;51.808;7.478;2023-12-22T00:20:04;99326.00;;;6.20
12854;BMP180;6495;51.808;7.478;2023-12-22T00:22:32;99334.00;;;6.20
12854;BMP180;6495;51.808;7.478;2023-12-22T00:25:01;99334.00;;;6.20
12854;BMP180;6495;51.808;7.478;2023-12-22T00:27:29;99339.00;;;6.20
12854;BMP180;6495;51.808;7.478;2023-12-22T00:29:59;99348.00;;;6.20
12854;BMP180;6495;51.808;7.478;2023-12-22T00:32:27;99363.00;;;6.20
12854;BMP180;6495;51.808;7.478;2023-12-22T00:34:56;99366.00;;;6.20
12854;BMP180;6495;51.808;7.478;2023-12-22T00:37:25;99368.00;;;6.10
12854;BMP180;6495;51.808;7.478;2023-12-22T00:39:54;99358.00;;;6.10
12854;BMP180;6495;51.808;7.478;2023-12-22T00:42:24;99362.00;;;6.10
12854;BMP180;6495;51.808;7.478;2023-12-22T00:44:52;99365.00;;;6.10
12854;BMP180;6495;51.808;7.478;2023-12-22T00:47:22;99373.00;;;6.20
12854;BMP180;6495;51.808;7.478;2023-12-22T00:49:50;99369.00;;;6.10
12854;BMP180;6495;51.808;7.478;2023-12-22T00:52:18;99365.00;;;6.10
12854;BMP180;6495;51.808;7.478;2023-12-22T00:54:47;99352.00;;;6.10
12854;BMP180;6495;51.808;7.478;2023-12-22T00:57:15;99348.00;;;6.10
12854;BMP180;6495;51.808;7.478;2023-12-22T00:59:44;99362.00;;;6.10
12854;BMP180;6495;51.808;7.478;2023-12-22T01:02:15;99375.00;;;6.10
12854;BMP180;6495;51.808;7.478;2023-12-22T01:04:45;99374.00;;;6.10
12854;BMP180;6495;51.808;7.478;2023-12-22T01:07:13;99385.00;;;6.10
12854;BMP180;6495;51.808;7.478;2023-12-22T01:09:42;99391.00;;;6.00
12854;BMP180;6495;51.808;7.478;2023-12-22T01:12:11;99389.00;;;6.00
12854;BMP180;6495;51.808;7.478;2023-12-22T01:14:39;99395.00;;;6.00
12854;BMP180;6495;51.808;7.478;2023-12-22T01:17:08;99381.00;;;6.00
12854;BMP180;6495;51.808;7.478;2023-12-22T01:19:36;99370.00;;;6.00
12854;BMP180;6495;51.808;7.478;2023-12-22T01:22:08;99375.00;;;6.00
12854;BMP180;6495;51.808;7.478;2023-12-22T01:24:37;99379.00;;;6.00
12854;BMP180;6495;51.808;7.478;2023-12-22T01:27:07;99376.00;;;6.00
12854;BMP180;6495;51.808;7.478;2023-12-22T01:29:36;99373.00;;;6.00
12854;BMP180;6495;51.808;7.478;2023-12-22T01:32:05;99390.00;;;6.00
12854;BMP180;6495;51.808;7.478;2023-12-22T01:34:34;99387.00;;;6.00
12854;BMP180;6495;51.808;7.478;2023-12-22T01:37:03;99377.00;;;6.00
12854;BMP180;6495;51.808;7.478;2023-12-22T01:39:32;99380.00;;;6.00
12854;BMP180;6495;51.808;7.478;2023-12-22T01:42:01;99383.00;;;6.00
12854;BMP180;6495;51.808;7.478;2023-12-22T01:44:31;99393.00;;;6.00
12854;BMP180;6495;51.808;7.478;2023-12-22T01:47:00;99403.00;;;6.00
12854;BMP180;6495;51.808;7.478;2023-12-22T01:49:28;99401.00;;;6.00
12854;BMP180;6495;51.808;7.478;2023-12-22T01:51:57;99403.00;;;6.00
12854;BMP180;6495;51.808;7.478;2023-12-22T01:54:26;99413.00;;;6.00
12854;BMP180;6495;51.808;7.478;2023-12-22T01:56:57;99399.00;;;6.00
12854;BMP180;6495;51.808;7.478;2023-12-22T01:59:25;99421.00;;;6.00
12854;BMP180;6495;51.808;7.478;2023-12-22T02:01:54;99419.00;;;6.00
12854;BMP180;6495;51.808;7.478;2023-12-22T02:04:24;99419.00;;;6.00
12854;BMP180;6495;51.808;7.478;2023-12-22T02:06:53;99407.00;;;6.00
12854;BMP180;6495;51.808;7.478;2023-12-22T02:09:21;99406.00;;;6.00
12854;BMP180;6495;51.808;7.478;2023-12-22T02:11:50;99409.00;;;6.00
12854;BMP180;6495;51.808;7.478;2023-12-22T02:14:20;99408.00;;;6.00
12854;BMP180;6495;51.808;7.478;2023-12-22T02:16:55;99403.00;;;6.00
12854;BMP180;6495;51.808;7.478;2023-12-22T02:19:42;99401.00;;;6.00
12854;BMP180;6495;51.808;7.478;2023-12-22T02:22:12;99412.00;;;6.00
12854;BMP180;6495;51.808;7.478;2023-12-22T02:24:42;99406.00;;;6.00
12854;BMP180;6495;51.808;7.478;2023-12-22T02:27:23;99403.00;;;6.00
12854;BMP180;6495;51.808;7.478;2023-12-22T02:30:03;99396.00;;;6.00
12854;BMP180;6495;51.808;7.478;2023-12-22T02:32:37;99395.00;;;6.00
12854;BMP180;6495;51.808;7.478;2023-12-22T02:35:11;99407.00;;;6.00
12854;BMP180;6495;51.808;7.478;2023-12-22T02:37:43;99410.00;;;6.00
12854;BMP180;6495;51.808;7.478;2023-12-22T02:40:15;99406.00;;;6.00
12854;BMP180;6495;51.808;7.478;2023-12-22T02:42:45;99409.00;;;6.00
12854;BMP180;6495;51.808;7.478;2023-12-22T02:45:16;99414.00;;;6.00
12854;BMP180;6495;51.808;7.478;2023-12-22T02:47:45;99411.00;;;6.00
12854;BMP180;6495;51.808;7.478;2023-12-22T02:50:16;99401.00;;;6.00
12854;BMP180;6495;51.808;7.478;2023-12-22T02:52:44;99408.00;;;6.00
12854;BMP180;6495;51.808;7.478;2023-12-22T02:55:14;99432.00;;;6.10
12854;BMP180;6495;51.808;7.478;2023-12-22T02:57:43;99443.00;;;6.10
12854;BMP180;6495;51.808;7.478;2023-12-22T03:00:12;99442.00;;;6.10
12854;BMP180;6495;51.808;7.478;2023-12-22T03:02:41;99452.00;;;6.00
12854;BMP180;6495;51.808;7.478;2023-12-22T03:05:09;99402.00;;;5.90
12854;BMP180;6495;51.808;7.478;2023-12-22T03:10:35;99413.00;;;5.80
12854;BMP180;6495;51.808;7.478;2023-12-22T03:13:03;99429.00;;;5.70
12854;BMP180;6495;51.808;7.478;2023-12-22T03:15:32;99422.00;;;5.60
12854;BMP180;6495;51.808;7.478;2023-12-22T03:18:00;99444.00;;;5.50
12854;BMP180;6495;51.808;7.478;2023-12-22T03:20:28;99434.00;;;5.50
12854;BMP180;6495;51.808;7.478;2023-12-22T03:22:57;99442.00;;;5.40
12854;BMP180;6495;51.808;7.478;2023-12-22T03:25:25;99446.00;;;5.40
12854;BMP180;6495;51.808;7.478;2023-12-22T03:27:57;99442.00;;;5.40
12854;BMP180;6495;51.808;7.478;2023-12-22T03:30:25;99435.00;;;5.40
12854;BMP180;6495;51.808;7.478;2023-12-22T03:32:54;99446.00;;;5.40
12854;BMP180;6495;51.808;7.478;2023-12-22T03:35:22;99438.00;;;5.40
12854;BMP180;6495;51.808;7.478;2023-12-22T03:37:50;99434.00;;;5.50
12854;BMP180;6495;51.808;7.478;2023-12-22T03:40:19;99423.00;;;5.50
12854;BMP180;6495;51.808;7.478;2023-12-22T03:42:48;99423.00;;;5.50
12854;BMP180;6495;51.808;7.478;2023-12-22T03:45:17;99433.00;;;5.50
12854;BMP180;6495;51.808;7.478;2023-12-22T03:47:46;99425.00;;;5.50
12854;BMP180;6495;51.808;7.478;2023-12-22T03:50:15;99430.00;;;5.50
12854;BMP180;6495;51.808;7.478;2023-12-22T03:52:43;99432.00;;;5.50
12854;BMP180;6495;51.808;7.478;2023-12-22T03:55:12;99433.00;;;5.60
12854;BMP180;6495;51.808;7.478;2023-12-22T03:57:40;99416.00;;;5.60
12854;BMP180;6495;51.808;7.478;2023-12-22T04:00:10;99441.00;;;5.50
12854;BMP180;6495;51.808;7.478;2023-12-22T04:02:40;99433.00;;;5.50
12854;BMP180;6495;51.808;7.478;2023-12-22T04:05:11;99425.00;;;5.50
12854;BMP180;6495;51.808;7.478;2023-12-22T04:07:39;99423.00;;;5.50
12854;BMP180;6495;51.808;7.478;2023-12-22T04:10:09;99429.00;;;5.50
12854;BMP180;6495;51.808;7.478;2023-12-22T04:12:37;99412.00;;;5.50
12854;BMP180;6495;51.808;7.478;2023-12-22T04:15:07;99422.00;;;5.50
12854;BMP180;6495;51.808;7.478;2023-12-22T04:17:35;99422.00;;;5.50
12854;BMP180;6495;51.808;7.478;2023-12-22T04:20:07;99432.00;;;5.50
12854;BMP180;6495;51.808;7.478;2023-12-22T04:22:36;99433.00;;;5.50
12854;BMP180;6495;51.808;7.478;2023-12-22T04:25:04;99428.00;;;5.50
12854;BMP180;6495;51.808;7.478;2023-12-22T04:27:33;99422.00;;;5.50
12854;BMP180;6495;51.808;7.478;2023-12-22T04:30:02;99417.00;;;5.50
12854;BMP180;6495;51.808;7.478;2023-12-22T04:32:30;99426.00;;;5.50
12854;BMP180;6495;51.808;7.478;2023-12-22T04:34:58;99435.00;;;5.50
12854;BMP180;6495;51.808;7.478;2023-12-22T04:37:28;99451.00;;;5.50
12854;BMP180;6495;51.808;7.478;2023-12-22T04:39:57;99445.00;;;5.50
12854;BMP180;6495;51.808;7.478;2023-12-22T04:42:25;99452.00;;;5.50
12854;BMP180;6495;51.808;7.478;2023-12-22T04:44:54;99448.00;;;5.50
12854;BMP180;6495;51.808;7.478;2023-12-22T04:47:23;99458.00;;;5.50
12854;BMP180;6495;51.808;7.478;2023-12-22T04:49:51;99463.00;;;5.50
12854;BMP180;6495;51.808;7.478;2023-12-22T04:52:20;99462.00;;;5.50
12854;BMP180;6495;51.808;7.478;2023-12-22T04:54:49;99461.00;;;5.50
12854;BMP180;6495;51.808;7.478;2023-12-22T04:57:18;99455.00;;;5.40
12854;BMP180;6495;51.808;7.478;2023-12-22T04:59:46;99455.00;;;5.50
12854;BMP180;6495;51.808;7.478;2023-12-22T05:02:14;99455.00;;;5.50
12854;BMP180;6495;51.808;7.478;2023-12-22T05:04:43;99458.00;;;5.50
12854;BMP180;6495;51.808;7.478;2023-12-22T05:07:11;99462.00;;;5.50
12854;BMP180;6495;51.808;7.478;2023-12-22T05:09:41;99456.00;;;5.50
12854;BMP180;6495;51.808;7.478;2023-12-22T05:12:11;99473.00;;;5.50
12854;BMP180;6495;51.808;7.478;2023-12-22T05:14:39;99469.00;;;5.50
12854;BMP180;6495;51.808;7.478;2023-12-22T05:17:08;99467.00;;;5.50
12854;BMP180;6495;51.808;7.478;2023-12-22T05:19:36;99483.00;;;5.50
12854;BMP180;6495;51.808;7.478;2023-12-22T05:22:05;99488.00;;;5.50
12854;BMP180;6495;51.808;7.478;2023-12-22T05:24:33;99480.00;;;5.50
12854;BMP180;6495;51.808;7.478;2023-12-22T05:27:02;99476.00;;;5.50
12854;BMP180;6495;51.808;7.478;2023-12-22T05:29:32;99479.00;;;5.50
12854;BMP180;6495;51.808;7.478;2023-12-22T05:32:01;99483.00;;;5.50
12854;BMP180;6495;51.808;7.478;2023-12-22T05:34:29;99484.00;;;5.50
12854;BMP180;6495;51.808;7.478;2023-12-22T05:36:58;99500.00;;;5.50
12854;BMP180;6495;51.808;7.478;2023-12-22T05:39:26;99505.00;;;5.50
12854;BMP180;6495;51.808;7.478;2023-12-22T05:41:55;99502.00;;;5.50
12854;BMP180;6495;51.808;7.478;2023-12-22T05:44:23;99506.00;;;5.50
12854;BMP180;6495;51.808;7.478;2023-12-22T05:46:53;99516.00;;;5.50
12854;BMP180;6495;51.808;7.478;2023-12-22T05:49:21;99507.00;;;5.60
12854;BMP180;6495;51.808;7.478;2023-12-22T05:51:51;99520.00;;;5.60
12854;BMP180;6495;51.808;7.478;2023-12-22T05:54:19;99515.00;;;5.50
12854;BMP180;6495;51.808;7.478;2023-12-22T05:56:48;99508.00;;;5.50
12854;BMP180;6495;51.808;7.478;2023-12-22T05:59:20;99525.00;;;5.50
12854;BMP180;6495;51.808;7.478;2023-12-22T06:01:54;99514.00;;;5.50
12854;BMP180;6495;51.808;7.478;2023-12-22T06:04:22;99516.00;;;5.60
12854;BMP180;6495;51.808;7.478;2023-12-22T06:06:51;99513.00;;;5.60
12854;BMP180;6495;51.808;7.478;2023-12-22T06:09:20;99521.00;;;5.60
12854;BMP180;6495;51.808;7.478;2023-12-22T06:11:49;99528.00;;;5.60
12854;BMP180;6495;51.808;7.478;2023-12-22T06:14:17;99532.00;;;5.60
12854;BMP180;6495;51.808;7.478;2023-12-22T06:16:45;99526.00;;;5.60
12854;BMP180;6495;51.808;7.478;2023-12-22T06:19:15;99516.00;;;5.60
12854;BMP180;6495;51.808;7.478;2023-12-22T06:21:44;99534.00;;;5.60
12854;BMP180;6495;51.808;7.478;2023-12-22T06:24:12;99526.00;;;5.70
12854;BMP180;6495;51.808;7.478;2023-12-22T06:26:41;99538.00;;;5.70
12854;BMP180;6495;51.808;7.478;2023-12-22T06:29:09;99535.00;;;5.70
12854;BMP180;6495;51.808;7.478;2023-12-22T06:31:37;99530.00;;;5.70
12854;BMP180;6495;51.808;7.478;2023-12-22T06:34:05;99538.00;;;5.70
12854;BMP180;6495;51.808;7.478;2023-12-22T06:36:35;99538.00;;;5.80
12854;BMP180;6495;51.808;7.478;2023-12-22T06:39:03;99528.00;;;5.80
12854;BMP180;6495;51.808;7.478;2023-12-22T06:41:31;99542.00;;;5.80
12854;BMP180;6495;51.808;7.478;2023-12-22T06:44:01;99551.00;;;5.80
12854;BMP180;6495;51.808;7.478;2023-12-22T06:46:30;99546.00;;;5.90
12854;BMP180;6495;51.808;7.478;2023-12-22T06:48:59;99538.00;;;5.90
12854;BMP180;6495;51.808;7.478;2023-12-22T06:51:32;99543.00;;;5.90
12854;BMP180;6495;51.808;7.478;2023-12-22T06:54:04;99538.00;;;5.90
12854;BMP180;6495;51.808;7.478;2023-12-22T06:56:34;99537.00;;;5.90
12854;BMP180;6495;51.808;7.478;2023-12-22T06:59:03;99546.00;;;5.90
12854;BMP180;6495;51.808;7.478;2023-12-22T07:01:34;99543.00;;;6.00
12854;BMP180;6495;51.808;7.478;2023-12-22T07:04:04;99554.00;;;6.00
12854;BMP180;6495;51.808;7.478;2023-12-22T07:06:34;99547.00;;;6.00
12854;BMP180;6495;51.808;7.478;2023-12-22T07:09:33;99555.00;;;6.00
12854;BMP180;6495;51.808;7.478;2023-12-22T07:12:01;99551.00;;;6.00
12854;BMP180;6495;51.808;7.478;2023-12-22T07:14:31;99542.00;;;6.00
12854;BMP180;6495;51.808;7.478;2023-12-22T07:17:01;99556.00;;;6.10
12854;BMP180;6495;51.808;7.478;2023-12-22T07:19:30;99555.00;;;6.10
12854;BMP180;6495;51.808;7.478;2023-12-22T07:21:59;99573.00;;;6.10
12854;BMP180;6495;51.808;7.478;2023-12-22T07:24:29;99570.00;;;6.10
12854;BMP180;6495;51.808;7.478;2023-12-22T07:26:59;99568.00;;;6.10
12854;BMP180;6495;51.808;7.478;2023-12-22T07:29:28;99573.00;;;6.20
12854;BMP180;6495;51.808;7.478;2023-12-22T07:31:56;99592.00;;;6.10
12854;BMP180;6495;51.808;7.478;2023-12-22T07:34:26;99560.00;;;6.10
12854;BMP180;6495;51.808;7.478;2023-12-22T07:36:55;99572.00;;;6.00
12854;BMP180;6495;51.808;7.478;2023-12-22T07:39:33;99567.00;;;6.00
12854;BMP180;6495;51.808;7.478;2023-12-22T07:42:05;99562.00;;;6.00
12854;BMP180;6495;51.808;7.478;2023-12-22T07:44:34;99553.00;;;5.90
12854;BMP180;6495;51.808;7.478;2023-12-22T07:47:03;99561.00;;;5.90
12854;BMP180;6495;51.808;7.478;2023-12-22T07:49:36;99580.00;;;5.90
12854;BMP180;6495;51.808;7.478;2023-12-22T07:52:05;99588.00;;;5.90
12854;BMP180;6495;51.808;7.478;2023-12-22T07:54:34;99593.00;;;5.90
12854;BMP180;6495;51.808;7.478;2023-12-22T07:57:06;99583.00;;;5.90
12854;BMP180;6495;51.808;7.478;2023-12-22T07:59:40;99580.00;;;5.90
12854;BMP180;6495;51.808;7.478;2023-12-22T08:02:09;99588.00;;;5.90
12854;BMP180;6495;51.808;7.478;2023-12-22T08:04:39;99588.00;;;5.90
12854;BMP180;6495;51.808;7.478;2023-12-22T08:07:08;99596.00;;;5.90
12854;BMP180;6495;51.808;7.478;2023-12-22T08:09:37;99600.00;;;5.80
12854;BMP180;6495;51.808;7.478;2023-12-22T08:12:10;99604.00;;;5.80
12854;BMP180;6495;51.808;7.478;2023-12-22T08:14:38;99613.00;;;5.80
12854;BMP180;6495;51.808;7.478;2023-12-22T08:17:08;99613.00;;;5.80
12854;BMP180;6495;51.808;7.478;2023-12-22T08:19:40;99611.00;;;5.90
12854;BMP180;6495;51.808;7.478;2023-12-22T08:22:14;99602.00;;;5.80
12854;BMP180;6495;51.808;7.478;2023-12-22T08:24:44;99594.00;;;5.80
12854;BMP180;6495;51.808;7.478;2023-12-22T08:27:17;99598.00;;;5.80
12854;BMP180;6495;51.808;7.478;2023-12-22T08:29:45;99601.00;;;5.80
12854;BMP180;6495;51.808;7.478;2023-12-22T08:32:16;99619.00;;;5.90
12854;BMP180;6495;51.808;7.478;2023-12-22T08:34:46;99607.00;;;5.80
12854;BMP180;6495;51.808;7.478;2023-12-22T08:37:15;99593.00;;;5.80
12854;BMP180;6495;51.808;7.478;2023-12-22T08:39:44;99618.00;;;5.90
12854;BMP180;6495;51.808;7.478;2023-12-22T08:42:12;99603.00;;;5.80
12854;BMP180;6495;51.808;7.478;2023-12-22T08:44:42;99611.00;;;5.80
12854;BMP180;6495;51.808;7.478;2023-12-22T08:47:11;99618.00;;;5.70
12854;BMP180;6495;51.808;7.478;2023-12-22T08:49:39;99627.00;;;5.70
12854;BMP180;6495;51.808;7.478;2023-12-22T08:52:08;99617.00;;;5.70
12854;BMP180;6495;51.808;7.478;2023-12-22T08:54:36;99605.00;;;5.70
12854;BMP180;6495;51.808;7.478;2023-12-22T08:57:05;99590.00;;;5.70
12854;BMP180;6495;51.808;7.478;2023-12-22T08:59:34;99598.00;;;5.80
12854;BMP180;6495;51.808;7.478;2023-12-22T09:02:04;99575.00;;;5.80
12854;BMP180;6495;51.808;7.478;2023-12-22T09:04:36;99579.00;;;5.80
12854;BMP180;6495;51.808;7.478;2023-12-22T09:07:05;99613.00;;;5.80
12854;BMP180;6495;51.808;7.478;2023-12-22T09:09:34;99628.00;;;5.80
12854;BMP180;6495;51.808;7.478;2023-12-22T09:12:05;99634.00;;;5.80
12854;BMP180;6495;51.808;7.478;2023-12-22T09:14:34;99616.00;;;5.80
12854;BMP180;6495;51.808;7.478;2023-12-22T09:17:04;99617.00;;;5.80
12854;BMP180;6495;51.808;7.478;2023-12-22T09:19:33;99616.00;;;5.70
12854;BMP180;6495;51.808;7.478;2023-12-22T09:22:06;99616.00;;;5.70
12854;BMP180;6495;51.808;7.478;2023-12-22T09:24:34;99605.00;;;5.70
12854;BMP180;6495;51.808;7.478;2023-12-22T09:27:04;99601.00;;;5.70
12854;BMP180;6495;51.808;7.478;2023-12-22T09:29:32;99603.00;;;5.80
12854;BMP180;6495;51.808;7.478;2023-12-22T09:32:05;99602.00;;;5.80
12854;BMP180;6495;51.808;7.478;2023-12-22T09:34:34;99589.00;;;5.80
12854;BMP180;6495;51.808;7.478;2023-12-22T09:37:03;99582.00;;;5.80
12854;BMP180;6495;51.808;7.478;2023-12-22T09:39:32;99585.00;;;5.90
12854;BMP180;6495;51.808;7.478;2023-12-22T09:42:02;99572.00;;;5.90
12854;BMP180;6495;51.808;7.478;2023-12-22T09:44:32;99574.00;;;6.00
12854;BMP180;6495;51.808;7.478;2023-12-22T09:47:05;99564.00;;;6.00
12854;BMP180;6495;51.808;7.478;2023-12-22T09:49:37;99550.00;;;6.10
12854;BMP180;6495;51.808;7.478;2023-12-22T09:52:07;99562.00;;;6.10
12854;BMP180;6495;51.808;7.478;2023-12-22T09:54:37;99553.00;;;6.10
12854;BMP180;6495;51.808;7.478;2023-12-22T09:57:15;99562.00;;;6.20
12854;BMP180;6495;51.808;7.478;2023-12-22T09:59:55;99560.00;;;6.30
12854;BMP180;6495;51.808;7.478;2023-12-22T10:02:33;99578.00;;;6.30
12854;BMP180;6495;51.808;7.478;2023-12-22T10:05:03;99574.00;;;6.30
12854;BMP180;6495;51.808;7.478;2023-12-22T10:07:32;99571.00;;;6.30
12854;BMP180;6495;51.808;7.478;2023-12-22T10:10:04;99574.00;;;6.30
12854;BMP180;6495;51.808;7.478;2023-12-22T10:12:34;99554.00;;;6.40
12854;BMP180;6495;51.808;7.478;2023-12-22T10:15:08;99567.00;;;6.40
12854;BMP180;6495;51.808;7.478;2023-12-22T10:17:39;99562.00;;;6.40
12854;BMP180;6495;51.808;7.478;2023-12-22T10:20:09;99554.00;;;6.40
12854;BMP180;6495;51.808;7.478;2023-12-22T10:22:38;99543.00;;;6.50
12854;BMP180;6495;51.808;7.478;2023-12-22T10:25:08;99533.00;;;6.50
12854;BMP180;6495;51.808;7.478;2023-12-22T10:27:37;99537.00;;;6.50
12854;BMP180;6495;51.808;7.478;2023-12-22T10:30:07;99546.00;;;6.40
12854;BMP180;6495;51.808;7.478;2023-12-22T10:32:40;99550.00;;;6.40
12854;BMP180;6495;51.808;7.478;2023-12-22T10:35:09;99528.00;;;6.40
12854;BMP180;6495;51.808;7.478;2023-12-22T10:37:39;99525.00;;;6.40
12854;BMP180;6495;51.808;7.478;2023-12-22T10:40:11;99527.00;;;6.40
12854;BMP180;6495;51.808;7.478;2023-12-22T10:42:40;99524.00;;;6.40
12854;BMP180;6495;51.808;7.478;2023-12-22T10:45:09;99509.00;;;6.40
12854;BMP180;6495;51.808;7.478;2023-12-22T10:47:40;99513.00;;;6.40
12854;BMP180;6495;51.808;7.478;2023-12-22T10:50:12;99514.00;;;6.40
12854;BMP180;6495;51.808;7.478;2023-12-22T10:52:49;99522.00;;;6.40
12854;BMP180;6495;51.808;7.478;2023-12-22T10:55:17;99503.00;;;6.40
12854;BMP180;6495;51.808;7.478;2023-12-22T10:57:46;99495.00;;;6.40
12854;BMP180;6495;51.808;7.478;2023-12-22T11:00:17;99494.00;;;6.40
12854;BMP180;6495;51.808;7.478;2023-12-22T11:02:48;99493.00;;;6.50
12854;BMP180;6495;51.808;7.478;2023-12-22T11:05:20;99484.00;;;6.60
12854;BMP180;6495;51.808;7.478;2023-12-22T11:07:54;99469.00;;;6.60
12854;BMP180;6495;51.808;7.478;2023-12-22T11:10:26;99488.00;;;6.70
12854;BMP180;6495;51.808;7.478;2023-12-22T11:12:57;99481.00;;;6.70
12854;BMP180;6495;51.808;7.478;2023-12-22T11:15:26;99477.00;;;6.80
12854;BMP180;6495;51.808;7.478;2023-12-22T11:17:58;99471.00;;;6.80
12854;BMP180;6495;51.808;7.478;2023-12-22T11:20:28;99474.00;;;6.80
12854;BMP180;6495;51.808;7.478;2023-12-22T11:23:00;99454.00;;;6.90
12854;BMP180;6495;51.808;7.478;2023-12-22T11:25:31;99445.00;;;6.90
12854;BMP180;6495;51.808;7.478;2023-12-22T11:28:02;99455.00;;;6.90
12854;BMP180;6495;51.808;7.478;2023-12-22T11:30:36;99472.00;;;7.00
12854;BMP180;6495;51.808;7.478;2023-12-22T11:33:09;99484.00;;;7.10
12854;BMP180;6495;51.808;7.478;2023-12-22T11:35:39;99492.00;;;7.00
12854;BMP180;6495;51.808;7.478;2023-12-22T11:38:09;99500.00;;;7.00
12854;BMP180;6495;51.808;7.478;2023-12-22T11:40:40;99501.00;;;7.00
12854;BMP180;6495;51.808;7.478;2023-12-22T11:43:09;99501.00;;;7.00
12854;BMP180;6495;51.808;7.478;2023-12-22T11:45:38;99497.00;;;6.90
12854;BMP180;6495;51.808;7.478;2023-12-22T11:48:11;99487.00;;;6.90
12854;BMP180;6495;51.808;7.478;2023-12-22T11:50:43;99490.00;;;6.90
12854;BMP180;6495;51.808;7.478;2023-12-22T11:53:19;99489.00;;;6.90
12854;BMP180;6495;51.808;7.478;2023-12-22T11:55:59;99487.00;;;6.90
12854;BMP180;6495;51.808;7.478;2023-12-22T11:58:36;99500.00;;;6.80
12854;BMP180;6495;51.808;7.478;2023-12-22T12:01:10;99518.00;;;6.70
12854;BMP180;6495;51.808;7.478;2023-12-22T12:03:42;99510.00;;;
12854;BMP180;6495;51.808;7.478;2023-12-22T12:06:32;99511.00;;;6.70
12854;BMP180;6495;51.808;7.478;2023-12-22T12:09:05;99509.00;;;6.70
12854;BMP180;6495;51.808;7.478;2023-12-22T12:12:09;99500.00;;;6.70
12854;BMP180;6495;51.808;7.478;2023-12-22T12:14:43;99496.00;;;6.70
12854;BMP180;6495;51.808;7.478;2023-12-22T12:17:16;99493.00;;;6.60
12854;BMP180;6495;51.808;7.478;2023-12-22T12:19:48;99504.00;;;6.60
12854;BMP180;6495;51.808;7.478;2023-12-22T12:22:19;99501.00;;;6.60
12854;BMP180;6495;51.808;7.478;2023-12-22T12:24:52;99486.00;;;6.60
12854;BMP180;6495;51.808;7.478;2023-12-22T12:27:22;99482.00;;;6.60
12854;BMP180;6495;51.808;7.478;2023-12-22T12:29:50;99476.00;;;6.50
12854;BMP180;6495;51.808;7.478;2023-12-22T12:32:23;99459.00;;;6.60
12854;BMP180;6495;51.808;7.478;2023-12-22T12:34:54;99458.00;;;6.60
12854;BMP180;6495;51.808;7.478;2023-12-22T12:37:24;99451.00;;;6.60
12854;BMP180;6495;51.808;7.478;2023-12-22T12:39:58;99455.00;;;6.70
12854;BMP180;6495;51.808;7.478;2023-12-22T12:42:29;99450.00;;;6.70
12854;BMP180;6495;51.808;7.478;2023-12-22T12:44:59;99455.00;;;6.70
12854;BMP180;6495;51.808;7.478;2023-12-22T12:47:27;99461.00;;;6.70
12854;BMP180;6495;51.808;7.478;2023-12-22T12:50:00;99479.00;;;6.80
12854;BMP180;6495;51.808;7.478;2023-12-22T12:52:30;99482.00;;;6.80
12854;BMP180;6495;51.808;7.478;2023-12-22T12:54:59;99472.00;;;6.80
12854;BMP180;6495;51.808;7.478;2023-12-22T12:57:28;99458.00;;;6.80
12854;BMP180;6495;51.808;7.478;2023-12-22T12:59:56;99463.00;;;6.80
12854;BMP180;6495;51.808;7.478;2023-12-22T13:02:25;99467.00;;;6.90
12854;BMP180;6495;51.808;7.478;2023-12-22T13:04:58;99460.00;;;6.90
12854;BMP180;6495;51.808;7.478;2023-12-22T13:07:26;99449.00;;;6.90
12854;BMP180;6495;51.808;7.478;2023-12-22T13:09:56;99433.00;;;6.90
12854;BMP180;6495;51.808;7.478;2023-12-22T13:12:26;99433.00;;;7.00
12854;BMP180;6495;51.808;7.478;2023-12-22T13:14:54;99432.00;;;7.00
12854;BMP180;6495;51.808;7.478;2023-12-22T13:17:23;99438.00;;;7.10
12854;BMP180;6495;51.808;7.478;2023-12-22T13:19:51;99439.00;;;7.10
12854;BMP180;6495;51.808;7.478;2023-12-22T13:22:21;99443.00;;;7.10
12854;BMP180;6495;51.808;7.478;2023-12-22T13:24:57;99440.00;;;7.10
12854;BMP180;6495;51.808;7.478;2023-12-22T13:27:26;99443.00;;;7.20
12854;BMP180;6495;51.808;7.478;2023-12-22T13:29:55;99441.00;;;7.20
12854;BMP180;6495;51.808;7.478;2023-12-22T13:32:23;99442.00;;;7.20
12854;BMP180;6495;51.808;7.478;2023-12-22T13:34:54;99433.00;;;7.20
12854;BMP180;6495;51.808;7.478;2023-12-22T13:37:25;99423.00;;;7.20
12854;BMP180;6495;51.808;7.478;2023-12-22T13:39:58;99420.00;;;7.20
12854;BMP180;6495;51.808;7.478;2023-12-22T13:42:27;99412.00;;;7.20
12854;BMP180;6495;51.808;7.478;2023-12-22T13:44:57;99416.00;;;7.20
12854;BMP180;6495;51.808;7.478;2023-12-22T13:47:26;99425.00;;;7.30
12854;BMP180;6495;51.808;7.478;2023-12-22T13:49:56;99415.00;;;7.30
12854;BMP180;6495;51.808;7.478;2023-12-22T13:52:28;99426.00;;;7.30
12854;BMP180;6495;51.808;7.478;2023-12-22T13:55:00;99427.00;;;7.30
12854;BMP180;6495;51.808;7.478;2023-12-22T13:57:30;99426.00;;;7.40
12854;BMP180;6495;51.808;7.478;2023-12-22T13:59:59;99405.00;;;7.40
12854;BMP180;6495;51.808;7.478;2023-12-22T14:02:30;99394.00;;;7.40
12854;BMP180;6495;51.808;7.478;2023-12-22T14:04:58;99404.00;;;7.50
12854;BMP180;6495;51.808;7.478;2023-12-22T14:07:28;99527.00;;;7.50
12854;BMP180;6495;51.808;7.478;2023-12-22T14:09:57;99476.00;;;7.30
12854;BMP180;6495;51.808;7.478;2023-12-22T14:12:32;99471.00;;;7.10
12854;BMP180;6495;51.808;7.478;2023-12-22T14:15:06;99449.00;;;7.00
12854;BMP180;6495;51.808;7.478;2023-12-22T14:17:35;99454.00;;;6.90
12854;BMP180;6495;51.808;7.478;2023-12-22T14:20:05;99456.00;;;6.80
12854;BMP180;6495;51.808;7.478;2023-12-22T14:22:39;99464.00;;;6.80
12854;BMP180;6495;51.808;7.478;2023-12-22T14:25:08;99468.00;;;6.70
12854;BMP180;6495;51.808;7.478;2023-12-22T14:27:36;99460.00;;;6.70
12854;BMP180;6495;51.808;7.478;2023-12-22T14:30:06;99462.00;;;6.70
12854;BMP180;6495;51.808;7.478;2023-12-22T14:32:35;99453.00;;;6.70
12854;BMP180;6495;51.808;7.478;2023-12-22T14:35:04;99434.00;;;6.70
12854;BMP180;6495;51.808;7.478;2023-12-22T14:37:33;99430.00;;;6.70
12854;BMP180;6495;51.808;7.478;2023-12-22T14:40:06;99431.00;;;6.70
12854;BMP180;6495;51.808;7.478;2023-12-22T14:42:35;99452.00;;;6.70
12854;BMP180;6495;51.808;7.478;2023-12-22T14:45:04;99451.00;;;6.70
12854;BMP180;6495;51.808;7.478;2023-12-22T14:47:33;99447.00;;;6.70
12854;BMP180;6495;51.808;7.478;2023-12-22T14:50:02;99442.00;;;6.70
12854;BMP180;6495;51.808;7.478;2023-12-22T14:52:32;99418.00;;;6.80